Cherry Valley, California
Current Conditions -  °F | °C
As of 10:58 PM on Tuesday 25 Nov 2014 (Local Time) from KRIV Reporting Station
Clear Clear  
Wind Chill: 44°   Ceiling: Unl
Heat Index: 44°   Visibility: 10mi
Dew Point: 11°   Wind: 0mph
Humidity: 26%   Direction: NA
Pressure: 30.31"   Gusts: NA
Location:  33.9205°N, 116.973°W
Report Text: KRIV 260658Z AUTO 00000KT 10SM CLR 07/M12 A3031 RMK AO2 SLP260 T00661118
Loading
Personal Weather Stations






























Interactive Weather Map New forecast layout! Learn more

10-Day Weather Forecast

Advertisements
Track Severe Weather on mobile